createdAt,value
2017-07-29T00:00:19.426Z,1008.75
2017-07-29T00:01:29.054Z,1008.75
2017-07-29T00:02:38.995Z,1008.75
2017-07-29T00:03:49.238Z,1008.76
2017-07-29T00:04:58.856Z,1008.73
2017-07-29T00:06:08.187Z,1008.71
2017-07-29T00:07:18.421Z,1008.65
2017-07-29T00:08:28.341Z,1008.66
2017-07-29T00:09:38.573Z,1008.65
2017-07-29T00:10:48.509Z,1008.66
2017-07-29T00:11:58.121Z,1008.65
2017-07-29T00:13:08.048Z,1008.64
2017-07-29T00:14:18.288Z,1008.69
2017-07-29T00:15:27.894Z,1008.68
2017-07-29T00:16:38.128Z,1008.64
2017-07-29T00:17:47.734Z,1008.63
2017-07-29T00:18:57.962Z,1008.64
2017-07-29T00:20:08.209Z,1008.67
2017-07-29T00:21:18.436Z,1008.66
2017-07-29T00:22:28.353Z,1008.57
2017-07-29T00:23:38.315Z,1008.59
2017-07-29T00:24:48.229Z,1008.57
2017-07-29T00:25:58.456Z,1008.53
2017-07-29T00:27:08.377Z,1008.48
2017-07-29T00:28:18.303Z,1008.47
2017-07-29T00:29:28.526Z,1008.49
2017-07-29T00:30:38.180Z,1008.49
2017-07-29T00:31:48.096Z,1008.48
2017-07-29T00:32:58.005Z,1008.44
2017-07-29T00:34:07.630Z,1008.47
2017-07-29T00:35:17.856Z,1008.42
2017-07-29T00:36:27.770Z,1008.46
2017-07-29T00:37:37.382Z,1008.47
2017-07-29T00:38:47.305Z,1008.5
2017-07-29T00:39:57.216Z,1008.41
2017-07-29T00:41:06.847Z,1008.4
2017-07-29T00:42:16.460Z,1008.38
2017-07-29T00:43:26.374Z,1008.38
2017-07-29T00:44:36.640Z,1008.36
2017-07-29T00:45:46.272Z,1008.37
2017-07-29T00:46:56.492Z,1008.4
2017-07-29T00:48:06.103Z,1008.42
2017-07-29T00:49:16.020Z,1008.45
2017-07-29T00:50:25.939Z,1008.46
2017-07-29T00:54:07.933Z,1008.3
2017-07-29T00:57:49.909Z,1008.2
2017-07-29T01:01:32.502Z,1008.21
2017-07-29T01:02:42.736Z,1008.18
2017-07-29T01:07:35.551Z,1008.17
2017-07-29T01:17:33.096Z,1008.12
2017-07-29T01:21:16.324Z,1008.05
2017-07-29T01:22:25.943Z,1008.06
2017-07-29T01:26:08.244Z,1008.12
2017-07-29T01:27:18.477Z,1008.05
2017-07-29T01:28:28.411Z,1008.02
2017-07-29T01:29:38.328Z,1008.03
2017-07-29T01:30:48.252Z,1008.04
2017-07-29T01:31:57.884Z,1008.05
2017-07-29T01:33:07.860Z,1008.04
2017-07-29T01:34:17.470Z,1008.02
2017-07-29T01:35:27.086Z,1008
2017-07-29T01:36:37.307Z,1008.01
2017-07-29T01:44:08.452Z,1008
2017-07-29T01:45:18.077Z,1008.01
2017-07-29T01:46:27.998Z,1008.03
2017-07-29T01:47:37.936Z,1008.02
2017-07-29T01:48:47.561Z,1008
2017-07-29T01:49:57.776Z,1007.92
2017-07-29T01:51:07.708Z,1007.93
2017-07-29T01:52:17.652Z,1007.95
2017-07-29T01:53:27.884Z,1008
2017-07-29T01:54:37.821Z,1008.06
2017-07-29T01:55:48.046Z,1008.1
2017-07-29T01:56:57.679Z,1008.06
2017-07-29T01:58:07.626Z,1008.04
2017-07-29T01:59:17.559Z,1008.03
2017-07-29T02:00:27.467Z,1007.99
2017-07-29T02:01:37.680Z,1007.99
2017-07-29T02:02:47.915Z,1007.96
2017-07-29T02:03:58.139Z,1007.97
2017-07-29T02:05:08.050Z,1007.97
2017-07-29T02:06:17.976Z,1007.96
2017-07-29T02:07:27.902Z,1007.95
2017-07-29T02:08:37.525Z,1007.96
2017-07-29T02:09:47.444Z,1007.94
2017-07-29T02:10:57.675Z,1007.9
2017-07-29T02:12:07.618Z,1007.96
2017-07-29T02:13:17.227Z,1007.93
2017-07-29T02:14:26.534Z,1007.93
2017-07-29T02:15:36.460Z,1007.94
2017-07-29T02:16:46.676Z,1007.92
2017-07-29T02:17:56.906Z,1007.92
2017-07-29T02:19:06.826Z,1007.91
2017-07-29T02:20:17.098Z,1007.9
2017-07-29T02:21:27.054Z,1007.9
2017-07-29T02:22:37.015Z,1007.9
2017-07-29T02:23:46.959Z,1007.93
2017-07-29T02:24:56.897Z,1007.9
2017-07-29T02:26:07.117Z,1007.87
2017-07-29T02:27:17.043Z,1007.85
2017-07-29T02:28:27.305Z,1007.84
2017-07-29T02:29:37.244Z,1007.81
2017-07-29T02:30:47.507Z,1007.9
2017-07-29T02:31:56.814Z,1007.84
2017-07-29T02:33:06.156Z,1007.83
2017-07-29T02:34:16.079Z,1007.79
2017-07-29T02:35:26.000Z,1007.8
2017-07-29T02:36:35.916Z,1007.81
2017-07-29T02:37:45.832Z,1007.82
2017-07-29T02:38:55.758Z,1007.83
2017-07-29T02:40:05.967Z,1007.79
2017-07-29T02:41:15.940Z,1007.79
2017-07-29T02:42:25.850Z,1007.74
2017-07-29T02:43:36.084Z,1007.72
2017-07-29T02:44:46.313Z,1007.71
2017-07-29T02:45:56.537Z,1007.7
2017-07-29T02:47:06.485Z,1007.73
2017-07-29T02:48:16.399Z,1007.74
2017-07-29T02:49:26.645Z,1007.75
2017-07-29T02:50:36.262Z,1007.73
2017-07-29T02:51:46.505Z,1007.72
2017-07-29T02:52:56.421Z,1007.73
2017-07-29T02:54:06.363Z,1007.77
2017-07-29T02:55:16.325Z,1007.76
2017-07-29T02:56:25.645Z,1007.82
2017-07-29T02:57:35.870Z,1007.83
2017-07-29T02:58:45.791Z,1007.78
2017-07-29T02:59:55.736Z,1007.7
2017-07-29T03:01:05.347Z,1007.73
2017-07-29T03:02:14.367Z,1007.73
2017-07-29T03:03:23.968Z,1007.77
2017-07-29T03:04:33.572Z,1007.78
2017-07-29T03:05:43.197Z,1007.8
2017-07-29T03:06:53.148Z,1007.77
2017-07-29T03:08:03.083Z,1007.8
2017-07-29T03:09:13.014Z,1007.76
2017-07-29T03:10:22.342Z,1007.75
2017-07-29T03:11:32.557Z,1007.65
2017-07-29T03:12:42.797Z,1007.6
2017-07-29T03:13:52.427Z,1007.61
2017-07-29T03:15:02.350Z,1007.62
2017-07-29T03:16:11.986Z,1007.67
2017-07-29T03:17:21.979Z,1007.63
2017-07-29T03:18:31.922Z,1007.59
2017-07-29T03:19:41.856Z,1007.61
2017-07-29T03:20:52.092Z,1007.61
2017-07-29T03:22:02.329Z,1007.59
2017-07-29T03:23:12.280Z,1007.56
2017-07-29T03:24:22.506Z,1007.49
2017-07-29T03:25:32.728Z,1007.5
2017-07-29T03:26:42.661Z,1007.59
2017-07-29T03:27:52.587Z,1007.63
2017-07-29T03:29:01.596Z,1007.67
2017-07-29T03:30:11.835Z,1007.69
2017-07-29T03:31:21.770Z,1007.73
2017-07-29T03:32:32.004Z,1007.72
2017-07-29T03:33:41.921Z,1007.79
2017-07-29T03:34:52.158Z,1007.83
2017-07-29T03:36:01.766Z,1007.83
2017-07-29T03:37:11.693Z,1007.83
2017-07-29T03:38:21.602Z,1007.77
2017-07-29T03:39:31.837Z,1007.76
2017-07-29T03:40:41.449Z,1007.79
2017-07-29T03:41:51.674Z,1007.75
2017-07-29T03:43:01.907Z,1007.71
2017-07-29T03:44:11.829Z,1007.78
2017-07-29T03:45:21.741Z,1007.77
2017-07-29T03:46:31.653Z,1007.78
2017-07-29T03:47:41.594Z,1007.72
2017-07-29T03:48:51.830Z,1007.69
2017-07-29T03:50:02.076Z,1007.63
2017-07-29T03:51:12.001Z,1007.69
2017-07-29T03:52:21.623Z,1007.67
2017-07-29T03:53:31.549Z,1007.73
2017-07-29T03:54:41.480Z,1007.67
2017-07-29T03:55:51.394Z,1007.67
2017-07-29T03:57:01.315Z,1007.66
2017-07-29T03:58:10.932Z,1007.67
2017-07-29T03:59:21.153Z,1007.67
2017-07-29T04:00:31.078Z,1007.64
2017-07-29T04:01:40.688Z,1007.64
2017-07-29T04:02:50.917Z,1007.67
2017-07-29T04:04:00.216Z,1007.72
2017-07-29T04:05:10.145Z,1007.73
2017-07-29T04:06:20.063Z,1007.78
2017-07-29T04:07:29.983Z,1007.82
2017-07-29T04:08:39.894Z,1007.74
2017-07-29T04:09:50.120Z,1007.75
2017-07-29T04:11:00.062Z,1007.8
2017-07-29T04:12:09.985Z,1007.7
2017-07-29T04:13:19.903Z,1007.75
2017-07-29T04:14:29.838Z,1007.77
2017-07-29T04:15:40.114Z,1007.79
2017-07-29T04:16:50.043Z,1007.8
2017-07-29T04:17:59.640Z,1007.83
2017-07-29T04:19:09.897Z,1007.81
2017-07-29T04:20:19.534Z,1007.78
2017-07-29T04:21:29.446Z,1007.78
2017-07-29T04:22:39.056Z,1007.75
2017-07-29T04:23:48.699Z,1007.78
2017-07-29T04:24:58.927Z,1007.75
2017-07-29T04:26:09.142Z,1007.79
2017-07-29T04:27:19.360Z,1007.76
2017-07-29T04:28:29.598Z,1007.78
2017-07-29T04:29:39.520Z,1007.79
2017-07-29T04:30:49.440Z,1007.83
2017-07-29T04:31:59.381Z,1007.83
2017-07-29T04:33:09.153Z,1007.82
2017-07-29T04:34:19.430Z,1007.81
2017-07-29T04:35:29.347Z,1007.83
2017-07-29T04:36:39.264Z,1007.85
2017-07-29T04:37:49.192Z,1007.92
2017-07-29T04:38:59.113Z,1007.88
2017-07-29T04:40:09.040Z,1007.87
2017-07-29T04:41:19.307Z,1007.84
2017-07-29T04:42:29.227Z,1007.79
2017-07-29T04:43:39.157Z,1007.79
2017-07-29T04:44:49.377Z,1007.77
2017-07-29T04:45:59.310Z,1007.82
2017-07-29T04:47:08.642Z,1007.85
2017-07-29T04:48:18.557Z,1007.9
2017-07-29T04:49:28.470Z,1007.89
2017-07-29T04:50:38.701Z,1007.86
2017-07-29T04:51:48.299Z,1007.91
2017-07-29T04:52:57.611Z,1007.94
2017-07-29T04:54:07.536Z,1007.96
2017-07-29T04:55:17.152Z,1007.96
2017-07-29T04:56:27.376Z,1008
2017-07-29T04:57:37.607Z,1007.98
2017-07-29T04:58:47.847Z,1008
2017-07-29T04:59:58.098Z,1007.98
2017-07-29T05:01:08.326Z,1008
2017-07-29T05:02:18.245Z,1007.99
2017-07-29T05:03:27.546Z,1007.99
2017-07-29T05:04:37.783Z,1007.97
2017-07-29T05:05:47.388Z,1007.91
2017-07-29T05:06:57.310Z,1007.87
2017-07-29T05:08:06.952Z,1007.84
2017-07-29T05:09:16.884Z,1007.85
2017-07-29T05:10:26.198Z,1007.81
2017-07-29T05:11:36.424Z,1007.85
2017-07-29T05:12:46.034Z,1007.87
2017-07-29T05:13:56.279Z,1007.82
2017-07-29T05:15:05.886Z,1007.86
2017-07-29T05:16:16.120Z,1007.86
2017-07-29T05:17:26.042Z,1007.89
2017-07-29T05:18:35.345Z,1007.86
2017-07-29T05:19:45.570Z,1007.89
2017-07-29T05:20:55.791Z,1007.88
2017-07-29T05:22:05.414Z,1007.89
2017-07-29T05:23:15.337Z,1007.9
2017-07-29T05:24:24.951Z,1007.9
2017-07-29T05:25:34.857Z,1007.91
2017-07-29T05:26:45.087Z,1007.9
2017-07-29T05:27:55.000Z,1007.87
2017-07-29T05:29:04.609Z,1007.9
2017-07-29T05:30:14.851Z,1007.83
2017-07-29T05:31:25.090Z,1007.83
2017-07-29T05:32:34.692Z,1007.79
2017-07-29T05:33:43.999Z,1007.85
2017-07-29T05:34:53.621Z,1007.79
2017-07-29T05:36:03.540Z,1007.77
2017-07-29T05:37:13.475Z,1007.8
2017-07-29T05:38:23.403Z,1007.8
2017-07-29T05:39:33.635Z,1007.76
2017-07-29T05:40:43.583Z,1007.8
2017-07-29T05:41:53.509Z,1007.79
2017-07-29T05:43:03.429Z,1007.83
2017-07-29T05:44:13.651Z,1007.83
2017-07-29T05:45:22.705Z,1007.82
2017-07-29T05:46:32.961Z,1007.86
2017-07-29T05:47:43.181Z,1007.86
2017-07-29T05:48:53.406Z,1007.91
2017-07-29T05:50:02.716Z,1007.94
2017-07-29T05:51:12.989Z,1007.98
2017-07-29T05:52:23.209Z,1008.02
2017-07-29T05:53:33.129Z,1008.05
2017-07-29T05:54:43.046Z,1008.05
2017-07-29T05:55:52.712Z,1008.09
2017-07-29T05:57:02.649Z,1008.07
2017-07-29T05:58:12.279Z,1008.05
2017-07-29T05:59:22.201Z,1008.03
2017-07-29T06:00:32.438Z,1008.04
2017-07-29T06:01:42.040Z,1008.04
2017-07-29T06:02:52.282Z,1008.05
2017-07-29T06:04:02.533Z,1008.08
2017-07-29T06:05:12.458Z,1008.03
2017-07-29T06:06:22.674Z,1008.13
2017-07-29T06:07:32.892Z,1008.09
2017-07-29T06:08:42.798Z,1008.09
2017-07-29T06:09:53.051Z,1008.12
2017-07-29T06:11:02.979Z,1008.12
2017-07-29T06:12:12.606Z,1008.1
2017-07-29T06:13:22.523Z,1008.06
2017-07-29T06:14:32.455Z,1008.06
2017-07-29T06:15:42.683Z,1008.07
2017-07-29T06:16:52.904Z,1008.11
2017-07-29T06:18:02.208Z,1008.13
2017-07-29T06:19:12.129Z,1008.14
2017-07-29T06:20:22.372Z,1008.12
2017-07-29T06:21:32.601Z,1008.1
2017-07-29T06:22:41.902Z,1008.1
2017-07-29T06:23:52.129Z,1008.09
2017-07-29T06:25:02.348Z,1008.1
2017-07-29T06:26:12.569Z,1008.12
2017-07-29T06:27:22.521Z,1008.16
2017-07-29T06:28:32.441Z,1008.15
2017-07-29T06:29:42.375Z,1008.15
2017-07-29T06:30:52.610Z,1008.15
2017-07-29T06:32:02.231Z,1008.11
2017-07-29T06:33:12.473Z,1008.17
2017-07-29T06:34:22.713Z,1008.19
2017-07-29T06:35:32.621Z,1008.16
2017-07-29T06:36:42.244Z,1008.16
2017-07-29T06:37:52.169Z,1008.19
2017-07-29T06:39:02.101Z,1008.23
2017-07-29T06:40:11.711Z,1008.21
2017-07-29T06:41:21.928Z,1008.25
2017-07-29T06:42:31.552Z,1008.24
2017-07-29T06:43:41.483Z,1008.25
2017-07-29T06:44:51.404Z,1008.28
2017-07-29T06:46:01.015Z,1008.26
2017-07-29T06:47:10.948Z,1008.28
2017-07-29T06:48:21.201Z,1008.27
2017-07-29T06:49:31.100Z,1008.27
2017-07-29T06:50:41.055Z,1008.24
2017-07-29T06:51:50.671Z,1008.22
2017-07-29T06:53:00.924Z,1008.24
2017-07-29T06:54:10.232Z,1008.3
2017-07-29T06:55:19.860Z,1008.29
2017-07-29T06:56:29.472Z,1008.28
2017-07-29T06:57:39.397Z,1008.3
2017-07-29T06:58:49.028Z,1008.26
2017-07-29T06:59:58.948Z,1008.27
2017-07-29T07:01:08.873Z,1008.34
2017-07-29T07:02:18.794Z,1008.34
2017-07-29T07:03:28.721Z,1008.36
2017-07-29T07:04:38.337Z,1008.34
2017-07-29T07:05:47.965Z,1008.36
2017-07-29T07:06:57.897Z,1008.39
2017-07-29T07:08:07.829Z,1008.4
2017-07-29T07:09:17.442Z,1008.35
2017-07-29T07:10:27.682Z,1008.31
2017-07-29T07:11:37.602Z,1008.36
2017-07-29T07:12:47.827Z,1008.38
2017-07-29T07:13:58.058Z,1008.45
2017-07-29T07:15:07.662Z,1008.42
2017-07-29T07:16:17.291Z,1008.43
2017-07-29T07:17:27.526Z,1008.42
2017-07-29T07:18:37.141Z,1008.38
2017-07-29T07:19:47.060Z,1008.41
2017-07-29T07:20:57.283Z,1008.37
2017-07-29T07:22:07.216Z,1008.45
2017-07-29T07:23:16.837Z,1008.39
2017-07-29T07:24:26.163Z,1008.37
2017-07-29T07:25:36.388Z,1008.37
2017-07-29T07:26:46.014Z,1008.32
2017-07-29T07:27:55.626Z,1008.37
2017-07-29T07:29:05.309Z,1008.41
2017-07-29T07:30:15.601Z,1008.38
2017-07-29T07:31:25.534Z,1008.39
2017-07-29T07:32:35.777Z,1008.36
2017-07-29T07:33:45.852Z,1008.41
2017-07-29T07:34:56.531Z,1008.43
2017-07-29T07:36:07.801Z,1008.45
2017-07-29T07:37:17.707Z,1008.47
2017-07-29T07:38:27.325Z,1008.41
2017-07-29T07:39:37.547Z,1008.48
2017-07-29T07:40:47.468Z,1008.5
2017-07-29T07:41:57.696Z,1008.49
2017-07-29T07:43:07.926Z,1008.48
2017-07-29T07:44:18.148Z,1008.48
2017-07-29T07:45:28.370Z,1008.44
2017-07-29T07:46:38.601Z,1008.47
2017-07-29T07:47:49.213Z,1008.46
2017-07-29T07:48:59.130Z,1008.57
2017-07-29T07:50:09.361Z,1008.47
2017-07-29T07:51:19.574Z,1008.5
2017-07-29T07:52:29.807Z,1008.5
2017-07-29T07:53:39.730Z,1008.51
2017-07-29T07:54:49.662Z,1008.53
2017-07-29T07:55:59.589Z,1008.52
2017-07-29T07:57:09.852Z,1008.53
2017-07-29T07:58:20.098Z,1008.55
2017-07-29T07:59:30.322Z,1008.53
2017-07-29T08:00:40.555Z,1008.56
2017-07-29T08:01:50.186Z,1008.57
2017-07-29T08:03:00.102Z,1008.54
2017-07-29T08:04:10.013Z,1008.57
2017-07-29T08:05:19.618Z,1008.57
2017-07-29T08:06:29.535Z,1008.58
2017-07-29T08:07:39.480Z,1008.59
2017-07-29T08:08:49.401Z,1008.67
2017-07-29T08:10:00.651Z,1008.66
2017-07-29T08:11:10.265Z,1008.66
2017-07-29T08:12:20.505Z,1008.62
2017-07-29T08:13:30.435Z,1008.63
2017-07-29T08:14:40.350Z,1008.61
2017-07-29T08:15:50.280Z,1008.6
2017-07-29T08:17:00.508Z,1008.62
2017-07-29T08:18:09.815Z,1008.6
2017-07-29T08:19:20.037Z,1008.63
2017-07-29T08:20:29.985Z,1008.71
2017-07-29T08:21:39.913Z,1008.69
2017-07-29T08:22:50.144Z,1008.72
2017-07-29T08:23:59.751Z,1008.69
2017-07-29T08:25:09.973Z,1008.69
2017-07-29T08:26:19.894Z,1008.74
2017-07-29T08:27:30.511Z,1008.73
2017-07-29T08:28:39.822Z,1008.72
2017-07-29T08:29:49.438Z,1008.71
2017-07-29T08:30:59.350Z,1008.77
2017-07-29T08:32:08.959Z,1008.72
2017-07-29T08:33:18.252Z,1008.69
2017-07-29T08:34:27.867Z,1008.73
2017-07-29T08:35:37.808Z,1008.66
2017-07-29T08:36:47.422Z,1008.67
2017-07-29T08:37:57.065Z,1008.63
2017-07-29T08:39:06.378Z,1008.72
2017-07-29T08:40:16.597Z,1008.69
2017-07-29T08:41:26.823Z,1008.67
2017-07-29T08:42:37.054Z,1008.66
2017-07-29T08:43:46.659Z,1008.65
2017-07-29T08:44:56.592Z,1008.66
2017-07-29T08:46:06.197Z,1008.71
2017-07-29T08:47:15.527Z,1008.69
2017-07-29T08:48:25.437Z,1008.71
2017-07-29T08:49:35.670Z,1008.68
2017-07-29T08:50:45.602Z,1008.67
2017-07-29T08:51:55.210Z,1008.68
2017-07-29T08:53:04.829Z,1008.69
2017-07-29T08:54:14.138Z,1008.68
2017-07-29T08:55:24.062Z,1008.75
2017-07-29T08:56:34.285Z,1008.67
2017-07-29T08:57:44.509Z,1008.67
2017-07-29T08:58:54.798Z,1008.66
2017-07-29T09:00:04.115Z,1008.68
2017-07-29T09:01:14.025Z,1008.67
2017-07-29T09:02:23.031Z,1008.62
2017-07-29T09:03:33.263Z,1008.6
2017-07-29T09:04:42.876Z,1008.61
2017-07-29T09:05:53.103Z,1008.6
2017-07-29T09:07:02.718Z,1008.56
2017-07-29T09:08:12.951Z,1008.55
2017-07-29T09:09:22.555Z,1008.55
2017-07-29T09:10:32.778Z,1008.59
2017-07-29T09:11:42.706Z,1008.52
2017-07-29T09:12:52.625Z,1008.53
2017-07-29T09:14:02.541Z,1008.53
2017-07-29T09:15:12.544Z,1008.62
2017-07-29T09:16:22.466Z,1008.57
2017-07-29T09:17:32.681Z,1008.57
2017-07-29T09:18:42.600Z,1008.56
2017-07-29T09:19:53.026Z,1008.55
2017-07-29T09:21:02.943Z,1008.62
2017-07-29T09:22:14.100Z,1008.63
2017-07-29T09:23:24.633Z,1008.57
2017-07-29T09:24:34.574Z,1008.62
2017-07-29T09:25:44.505Z,1008.57
2017-07-29T09:26:54.427Z,1008.58
2017-07-29T09:28:04.342Z,1008.6
2017-07-29T09:29:14.557Z,1008.62
2017-07-29T09:30:24.490Z,1008.61
2017-07-29T09:31:34.430Z,1008.61
2017-07-29T09:32:44.061Z,1008.55
2017-07-29T09:33:53.988Z,1008.58
2017-07-29T09:35:03.906Z,1008.6
2017-07-29T09:36:13.506Z,1008.63
2017-07-29T09:37:23.118Z,1008.66
2017-07-29T09:38:33.063Z,1008.66
2017-07-29T09:39:43.296Z,1008.67
2017-07-29T09:40:52.909Z,1008.65
2017-07-29T09:42:02.826Z,1008.63
2017-07-29T09:43:12.747Z,1008.62
2017-07-29T09:44:22.977Z,1008.57
2017-07-29T09:45:32.605Z,1008.55
2017-07-29T09:46:42.538Z,1008.59
2017-07-29T09:47:52.452Z,1008.61
2017-07-29T09:49:02.375Z,1008.57
2017-07-29T09:50:12.302Z,1008.6
2017-07-29T09:51:21.915Z,1008.52
2017-07-29T09:52:31.529Z,1008.53
2017-07-29T09:53:41.441Z,1008.52
2017-07-29T09:54:51.670Z,1008.6
2017-07-29T09:56:01.607Z,1008.56
2017-07-29T09:57:11.854Z,1008.66
2017-07-29T09:58:21.458Z,1008.58
2017-07-29T09:59:31.692Z,1008.53
2017-07-29T10:00:41.612Z,1008.57
2017-07-29T10:01:51.849Z,1008.59
2017-07-29T10:03:02.090Z,1008.59
2017-07-29T10:04:11.699Z,1008.62
2017-07-29T10:05:21.624Z,1008.63
2017-07-29T10:06:31.883Z,1008.6
2017-07-29T10:07:42.115Z,1008.53
2017-07-29T10:08:52.055Z,1008.59
2017-07-29T10:10:02.320Z,1008.6
2017-07-29T10:11:12.241Z,1008.61
2017-07-29T10:12:22.161Z,1008.61
2017-07-29T10:13:31.800Z,1008.61
2017-07-29T10:14:41.443Z,1008.59
2017-07-29T10:15:51.359Z,1008.57
2017-07-29T10:17:01.631Z,1008.56
2017-07-29T10:18:11.245Z,1008.55
2017-07-29T10:19:20.559Z,1008.55
2017-07-29T10:20:30.803Z,1008.56
2017-07-29T10:21:41.041Z,1008.54
2017-07-29T10:22:51.262Z,1008.55
2017-07-29T10:24:01.493Z,1008.55
2017-07-29T10:25:11.413Z,1008.5
2017-07-29T10:26:21.354Z,1008.5
2017-07-29T10:27:31.600Z,1008.53
2017-07-29T10:28:41.818Z,1008.55
2017-07-29T10:29:51.109Z,1008.52
2017-07-29T10:31:01.036Z,1008.53
2017-07-29T10:32:10.974Z,1008.55
2017-07-29T10:33:20.888Z,1008.53
2017-07-29T10:34:30.827Z,1008.57
2017-07-29T10:35:39.887Z,1008.55
2017-07-29T10:36:49.823Z,1008.51
2017-07-29T10:37:59.432Z,1008.52
2017-07-29T10:39:09.671Z,1008.53
2017-07-29T10:40:19.910Z,1008.57
2017-07-29T10:41:29.239Z,1008.59
2017-07-29T10:42:39.164Z,1008.56
2017-07-29T10:43:49.107Z,1008.53
2017-07-29T10:44:59.342Z,1008.5
2017-07-29T10:46:09.571Z,1008.55
2017-07-29T10:47:18.887Z,1008.56
2017-07-29T10:48:28.793Z,1008.55
2017-07-29T10:49:38.414Z,1008.6
2017-07-29T10:50:48.343Z,1008.61
2017-07-29T10:51:58.284Z,1008.59
2017-07-29T10:53:07.888Z,1008.58
2017-07-29T10:54:18.115Z,1008.59
2017-07-29T10:55:28.036Z,1008.56
2017-07-29T10:56:37.654Z,1008.57
2017-07-29T10:57:47.589Z,1008.56
2017-07-29T10:58:57.188Z,1008.55
2017-07-29T11:00:06.812Z,1008.57
2017-07-29T11:01:16.736Z,1008.56
2017-07-29T11:02:26.963Z,1008.58
2017-07-29T11:03:36.877Z,1008.58
2017-07-29T11:04:46.194Z,1008.59
2017-07-29T11:05:55.830Z,1008.56
2017-07-29T11:07:05.748Z,1008.57
2017-07-29T11:08:15.654Z,1008.57
2017-07-29T11:09:25.897Z,1008.55
2017-07-29T11:10:35.207Z,1008.56
2017-07-29T11:11:44.839Z,1008.61
2017-07-29T11:12:54.137Z,1008.64
2017-07-29T11:14:03.745Z,1008.59
2017-07-29T11:15:13.367Z,1008.53
2017-07-29T11:16:23.272Z,1008.54
2017-07-29T11:17:33.495Z,1008.49
2017-07-29T11:18:43.128Z,1008.51
2017-07-29T11:19:52.731Z,1008.51
2017-07-29T11:21:02.353Z,1008.53
2017-07-29T11:22:11.657Z,1008.56
2017-07-29T11:23:21.573Z,1008.58
2017-07-29T11:24:31.529Z,1008.57
2017-07-29T11:25:40.883Z,1008.56
2017-07-29T11:26:50.799Z,1008.57
2017-07-29T11:28:00.712Z,1008.57
2017-07-29T11:29:10.937Z,1008.57
2017-07-29T11:30:21.205Z,1008.53
2017-07-29T11:31:30.817Z,1008.56
2017-07-29T11:32:40.423Z,1008.61
2017-07-29T11:33:50.654Z,1008.54
2017-07-29T11:35:00.589Z,1008.57
2017-07-29T11:36:09.920Z,1008.53
2017-07-29T11:37:19.868Z,1008.56
2017-07-29T11:38:29.797Z,1008.55
2017-07-29T11:39:39.426Z,1008.57
2017-07-29T11:40:49.684Z,1008.6
2017-07-29T11:41:59.902Z,1008.61
2017-07-29T11:43:09.924Z,1008.66
2017-07-29T11:44:19.543Z,1008.65
2017-07-29T11:45:29.479Z,1008.61
2017-07-29T11:46:39.399Z,1008.62
2017-07-29T11:47:49.035Z,1008.59
2017-07-29T11:48:59.262Z,1008.63
2017-07-29T11:50:09.546Z,1008.63
2017-07-29T11:51:19.770Z,1008.63
2017-07-29T11:52:29.729Z,1008.59
2017-07-29T11:53:39.348Z,1008.57
2017-07-29T11:54:49.003Z,1008.54
2017-07-29T11:55:58.298Z,1008.52
2017-07-29T11:57:08.283Z,1008.52
2017-07-29T11:58:18.208Z,1008.53
2017-07-29T11:59:27.806Z,1008.49
2017-07-29T12:00:38.026Z,1008.48
2017-07-29T12:01:47.667Z,1008.49
2017-07-29T12:02:57.608Z,1008.52
2017-07-29T12:04:07.842Z,1008.46
2017-07-29T12:05:17.766Z,1008.48
2017-07-29T12:06:27.071Z,1008.5
2017-07-29T12:07:37.014Z,1008.5
2017-07-29T12:08:46.675Z,1008.48
2017-07-29T12:09:56.895Z,1008.45
2017-07-29T12:11:06.818Z,1008.48
2017-07-29T12:12:16.736Z,1008.45
2017-07-29T12:13:26.969Z,1008.45
2017-07-29T12:14:37.223Z,1008.39
2017-07-29T12:15:47.453Z,1008.44
2017-07-29T12:16:57.067Z,1008.43
2017-07-29T12:18:06.672Z,1008.45
2017-07-29T12:19:16.890Z,1008.49
2017-07-29T12:20:26.502Z,1008.47
2017-07-29T12:21:36.715Z,1008.45
2017-07-29T12:22:46.939Z,1008.48
2017-07-29T12:23:57.162Z,1008.49
2017-07-29T12:25:07.381Z,1008.48
2017-07-29T12:26:17.322Z,1008.56
2017-07-29T12:27:26.933Z,1008.59
2017-07-29T12:28:36.857Z,1008.62
2017-07-29T12:29:47.083Z,1008.62
2017-07-29T12:30:56.691Z,1008.62
2017-07-29T12:32:06.620Z,1008.54
2017-07-29T12:33:16.556Z,1008.5
2017-07-29T12:34:26.462Z,1008.5
2017-07-29T12:35:36.060Z,1008.49
2017-07-29T12:36:45.986Z,1008.47
2017-07-29T12:37:56.228Z,1008.45
2017-07-29T12:39:05.849Z,1008.44
2017-07-29T12:40:16.100Z,1008.45
2017-07-29T12:41:26.705Z,1008.45
2017-07-29T12:42:36.918Z,1008.46
2017-07-29T12:43:46.841Z,1008.49
2017-07-29T12:44:56.756Z,1008.48
2017-07-29T12:46:06.683Z,1008.43
2017-07-29T12:47:16.666Z,1008.42
2017-07-29T12:48:26.851Z,1008.4
2017-07-29T12:49:36.767Z,1008.4
2017-07-29T12:50:46.376Z,1008.43
2017-07-29T12:51:56.294Z,1008.4
2017-07-29T12:53:06.228Z,1008.42
2017-07-29T12:54:16.139Z,1008.43
2017-07-29T12:55:25.449Z,1008.38
2017-07-29T12:56:35.082Z,1008.37
2017-07-29T12:57:45.350Z,1008.34
2017-07-29T12:58:55.610Z,1008.38
2017-07-29T13:00:05.229Z,1008.31
2017-07-29T13:01:14.534Z,1008.31
2017-07-29T13:02:24.772Z,1008.31
2017-07-29T13:03:34.711Z,1008.31
2017-07-29T13:04:44.634Z,1008.24
2017-07-29T13:05:54.255Z,1008.24
2017-07-29T13:07:03.875Z,1008.21
2017-07-29T13:08:13.775Z,1008.2
2017-07-29T13:09:23.377Z,1008.21
2017-07-29T13:10:33.616Z,1008.16
2017-07-29T13:11:43.845Z,1008.14
2017-07-29T13:12:53.767Z,1008.22
2017-07-29T13:14:03.684Z,1008.21
2017-07-29T13:15:13.624Z,1008.24
2017-07-29T13:16:23.529Z,1008.21
2017-07-29T13:17:33.833Z,1008.2
2017-07-29T13:18:43.436Z,1008.2
2017-07-29T13:19:53.659Z,1008.24
2017-07-29T13:21:03.902Z,1008.23
2017-07-29T13:22:13.202Z,1008.2
2017-07-29T13:23:22.872Z,1008.19
2017-07-29T13:24:32.472Z,1008.23
2017-07-29T13:25:42.715Z,1008.19
2017-07-29T13:26:52.623Z,1008.19
2017-07-29T13:28:02.552Z,1008.17
2017-07-29T13:29:11.869Z,1008.17
2017-07-29T13:30:22.104Z,1008.16
2017-07-29T13:31:32.034Z,1008.17
2017-07-29T13:32:41.667Z,1008.19
2017-07-29T13:33:51.579Z,1008.18
2017-07-29T13:35:01.803Z,1008.17
2017-07-29T13:36:11.720Z,1008.18
2017-07-29T13:37:21.938Z,1008.18
2017-07-29T13:38:31.557Z,1008.18
2017-07-29T13:39:41.477Z,1008.11
2017-07-29T13:40:50.771Z,1008.11
2017-07-29T13:42:01.007Z,1008.08
2017-07-29T13:43:10.941Z,1008.05
2017-07-29T13:44:20.245Z,1008.02
2017-07-29T13:45:30.182Z,1008.02
2017-07-29T13:46:39.792Z,1008.01
2017-07-29T13:47:49.726Z,1008.01
2017-07-29T13:48:59.950Z,1008.03
2017-07-29T13:50:09.888Z,1008.04
2017-07-29T13:51:19.503Z,1008.05
2017-07-29T13:52:29.416Z,1008.04
2017-07-29T13:53:39.329Z,1008.01
2017-07-29T13:54:49.558Z,1008.01
2017-07-29T13:55:59.484Z,1008.02
2017-07-29T13:57:09.414Z,1008.01
2017-07-29T13:58:19.015Z,1008
2017-07-29T13:59:28.961Z,1007.97
2017-07-29T14:00:38.576Z,1007.95
2017-07-29T14:01:48.498Z,1007.96
2017-07-29T14:02:58.736Z,1007.92
2017-07-29T14:04:08.654Z,1007.91
2017-07-29T14:05:18.572Z,1007.9
2017-07-29T14:06:28.501Z,1007.87
2017-07-29T14:07:37.836Z,1007.86
2017-07-29T14:08:48.077Z,1007.82
2017-07-29T14:09:57.695Z,1007.83
2017-07-29T14:11:07.344Z,1007.76
2017-07-29T14:12:17.311Z,1007.76
2017-07-29T14:13:27.238Z,1007.73
2017-07-29T14:14:37.169Z,1007.73
2017-07-29T14:15:46.790Z,1007.72
2017-07-29T14:16:57.026Z,1007.7
2017-07-29T14:18:06.958Z,1007.74
2017-07-29T14:19:16.878Z,1007.75
2017-07-29T14:20:26.797Z,1007.69
2017-07-29T14:21:37.045Z,1007.67
2017-07-29T14:22:46.971Z,1007.66
2017-07-29T14:23:56.582Z,1007.71
2017-07-29T14:25:06.526Z,1007.66
2017-07-29T14:26:16.749Z,1007.64
2017-07-29T14:27:26.679Z,1007.62
2017-07-29T14:28:36.913Z,1007.62
2017-07-29T14:29:46.821Z,1007.61
2017-07-29T14:30:56.739Z,1007.63
2017-07-29T14:32:06.976Z,1007.63
2017-07-29T14:33:16.886Z,1007.61
2017-07-29T14:34:26.832Z,1007.6
2017-07-29T14:35:36.753Z,1007.59
2017-07-29T14:36:46.971Z,1007.57
2017-07-29T14:37:57.204Z,1007.53
2017-07-29T14:39:07.429Z,1007.56
2017-07-29T14:40:17.048Z,1007.51